Weather at Mateo Remas Airport

Public forecast

Using degrees Celsius for public forecast. Weather courtesy of forecast.io.

Closest aviation weather report (METAR) to Mateo Remas Airport

Report is more than 6 hours old.

Closest report is Sierra Maestra Airport, 6.6 nm (12.3 km) NW. Retrieved 2022/01/14 21:50 UTC (12 days ago):

MUMZ 142150Z 25003KT 220V290 9000 FEW020 26/13 Q1014

Closest aviation forecast (TAF) to Mateo Remas Airport

Forecast is more than 12 hours old.

Closest forecast is Sierra Maestra Airport, 6.6 nm (12.3 km) NW. Retrieved 2021/12/22 18:48 UTC (1 month ago):

TAF COR MUMZ 221700Z 2218/2306 26010KT 9000 SCT020